Terminal Aerodrome Forecast
Issued by NWS

Home | Current Version | Previous Version | Text Only | Print | Product List | Glossary Off
Versions: 1 2 3 4 5 6 7 8 9 10 11 12

000
FTUS41 KCLE 220525
TAFFDY
TAF
KFDY 220525Z 2206/2306 31010KT P6SM BKN050
     FM220800 32010KT P6SM SCT050
     FM221500 VRB06KT P6SM SCT250=

USA.gov is the U.S. government's official web portal to all federal, state and local government web resources and services.